createdAt,value
2022-09-10T00:02:19.555Z,10.30
2022-09-10T00:07:23.177Z,5.30
2022-09-10T00:12:26.184Z,6.40
2022-09-10T00:17:29.291Z,6.50
2022-09-10T00:22:33.374Z,6.20
2022-09-10T00:27:36.537Z,5.00
2022-09-10T00:32:39.805Z,7.50
2022-09-10T00:37:42.648Z,5.70
2022-09-10T00:42:45.552Z,5.70
2022-09-10T00:47:50.488Z,6.50
2022-09-10T00:52:57.404Z,6.30
2022-09-10T00:58:02.132Z,6.10
2022-09-10T01:03:08.086Z,7.30
2022-09-10T01:08:16.454Z,6.00
2022-09-10T01:13:25.706Z,6.40
2022-09-10T01:18:46.226Z,5.30
2022-09-10T01:24:19.668Z,6.00
2022-09-10T01:29:31.254Z,5.80
2022-09-10T01:34:55.765Z,10.60
2022-09-10T01:40:02.015Z,6.20
2022-09-10T01:45:06.687Z,6.10
2022-09-10T01:50:21.688Z,6.20
2022-09-10T01:55:42.095Z,7.30
2022-09-10T02:00:53.832Z,5.80
2022-09-10T02:05:58.089Z,5.80
2022-09-10T02:11:06.396Z,5.80
2022-09-10T02:16:13.178Z,8.80
2022-09-10T02:21:16.503Z,7.20
2022-09-10T02:26:19.953Z,5.80
2022-09-10T02:31:23.949Z,6.30
2022-09-10T02:36:26.933Z,6.80
2022-09-10T02:41:34.139Z,5.70
2022-09-10T02:46:36.939Z,5.80
2022-09-10T02:51:41.996Z,7.50
2022-09-10T02:56:44.894Z,7.00
2022-09-10T03:01:48.601Z,6.90
2022-09-10T03:06:52.255Z,6.70
2022-09-10T03:11:55.453Z,6.40
2022-09-10T03:16:58.455Z,5.80
2022-09-10T03:22:01.571Z,9.60
2022-09-10T03:27:04.476Z,6.40
2022-09-10T03:32:07.482Z,8.20
2022-09-10T03:37:10.586Z,7.00
2022-09-10T03:42:14.271Z,8.00
2022-09-10T03:47:17.211Z,7.00
2022-09-10T03:52:22.894Z,6.90
2022-09-10T03:57:26.504Z,10.80
2022-09-10T04:02:29.437Z,6.20
2022-09-10T04:07:32.308Z,7.50
2022-09-10T04:12:36.440Z,6.90
2022-09-10T04:17:39.194Z,5.80
2022-09-10T04:22:42.046Z,9.40
2022-09-10T04:27:46.382Z,6.90
2022-09-10T04:32:49.881Z,6.50
2022-09-10T04:37:52.803Z,8.10
2022-09-10T04:42:56.294Z,7.60
2022-09-10T04:48:01.683Z,7.40
2022-09-10T04:53:08.173Z,6.90
2022-09-10T04:58:11.589Z,10.10
2022-09-10T05:03:15.827Z,8.90
2022-09-10T05:08:19.236Z,8.20
2022-09-10T05:13:25.531Z,7.80
2022-09-10T05:18:28.629Z,7.50
2022-09-10T05:23:32.356Z,7.90
2022-09-10T05:28:35.302Z,9.20
2022-09-10T05:33:42.184Z,8.30
2022-09-10T05:38:47.934Z,8.90
2022-09-10T05:43:50.932Z,8.40
2022-09-10T05:48:54.454Z,8.40
2022-09-10T05:54:00.979Z,8.20
2022-09-10T05:59:07.529Z,8.30
2022-09-10T06:04:11.456Z,8.00
2022-09-10T06:09:14.566Z,8.00
2022-09-10T06:14:17.467Z,8.10
2022-09-10T06:19:21.602Z,8.00
2022-09-10T06:24:26.039Z,9.10
2022-09-10T06:29:29.661Z,7.40
2022-09-10T06:34:32.566Z,7.00
2022-09-10T06:39:38.352Z,6.20
2022-09-10T06:44:41.342Z,7.50
2022-09-10T06:49:44.255Z,7.30
2022-09-10T06:54:48.385Z,6.80
2022-09-10T06:59:51.182Z,9.40
2022-09-10T07:04:54.090Z,6.70
2022-09-10T07:09:56.888Z,7.60
2022-09-10T07:14:59.792Z,8.10
2022-09-10T07:20:03.404Z,8.70
2022-09-10T07:25:07.422Z,10.10
2022-09-10T07:30:11.822Z,9.60
2022-09-10T07:35:15.002Z,9.60
2022-09-10T07:40:17.894Z,9.20
2022-09-10T07:45:22.462Z,9.00
2022-09-10T07:50:32.718Z,9.00
2022-09-10T08:00:42.624Z,9.10
2022-09-10T08:05:47.170Z,8.40
2022-09-10T08:10:49.961Z,8.20
2022-09-10T08:15:52.800Z,7.60
2022-09-10T08:20:55.875Z,9.00
2022-09-10T08:25:59.007Z,7.40
2022-09-10T08:31:10.115Z,8.10
2022-09-10T08:36:15.137Z,7.30
2022-09-10T08:41:31.448Z,6.90
2022-09-10T08:46:42.005Z,8.00
2022-09-10T08:52:20.776Z,7.20
2022-09-10T08:57:32.592Z,7.60
2022-09-10T09:02:49.701Z,6.30
2022-09-10T09:07:54.680Z,5.70
2022-09-10T09:13:00.348Z,5.70
2022-09-10T09:18:40.135Z,6.00
2022-09-10T09:24:12.540Z,6.60
2022-09-10T09:29:56.721Z,7.00
2022-09-10T09:35:28.976Z,7.40
2022-09-10T09:40:45.705Z,8.50
2022-09-10T09:45:49.578Z,7.00
2022-09-10T09:50:55.900Z,7.20
2022-09-10T09:56:01.495Z,9.50
2022-09-10T10:01:04.457Z,9.30
2022-09-10T10:06:10.657Z,10.90
2022-09-10T10:11:20.315Z,9.40
2022-09-10T10:16:35.843Z,8.90
2022-09-10T10:21:44.269Z,11.00
2022-09-10T10:26:48.911Z,9.60
2022-09-10T10:31:53.756Z,9.50
2022-09-10T10:37:18.680Z,10.80
2022-09-10T10:42:29.781Z,10.70
2022-09-10T10:47:43.642Z,10.30
2022-09-10T10:52:55.865Z,10.80
2022-09-10T10:58:24.777Z,11.30
2022-09-10T11:03:46.420Z,11.90
2022-09-10T11:08:58.164Z,10.80
2022-09-10T11:14:10.043Z,10.10
2022-09-10T11:19:20.115Z,11.40
2022-09-10T11:24:44.838Z,10.90
2022-09-10T11:30:10.571Z,11.40
2022-09-10T11:35:19.310Z,11.90
2022-09-10T11:40:31.950Z,11.40
2022-09-10T11:45:49.288Z,12.10
2022-09-10T11:51:02.225Z,13.80
2022-09-10T11:56:05.988Z,13.80
2022-09-10T12:01:33.945Z,14.90
2022-09-10T12:06:41.461Z,13.50
2022-09-10T12:11:56.440Z,11.40
2022-09-10T12:17:09.482Z,12.40
2022-09-10T12:22:29.692Z,11.50
2022-09-10T12:27:44.478Z,12.40
2022-09-10T12:32:48.721Z,10.40
2022-09-10T12:38:30.021Z,12.50
2022-09-10T12:43:41.925Z,10.80
2022-09-10T12:49:05.622Z,11.70
2022-09-10T12:54:30.336Z,10.90
2022-09-10T13:00:04.696Z,12.10
2022-09-10T13:05:38.816Z,13.00
2022-09-10T13:10:59.954Z,12.50
2022-09-10T13:16:04.516Z,12.70
2022-09-10T13:21:30.535Z,13.80
2022-09-10T13:26:48.631Z,14.30
2022-09-10T13:32:20.683Z,13.60
2022-09-10T13:37:51.508Z,13.50
2022-09-10T13:43:23.017Z,14.80
2022-09-10T13:48:30.956Z,13.90
2022-09-10T13:53:36.216Z,13.50
2022-09-10T13:58:48.583Z,19.80
2022-09-10T14:03:52.152Z,20.30
2022-09-10T14:08:58.741Z,16.40
2022-09-10T14:14:07.782Z,19.00
2022-09-10T14:19:23.385Z,23.20
2022-09-10T14:24:31.460Z,22.80
2022-09-10T14:29:34.416Z,21.60
2022-09-10T14:34:37.422Z,21.50
2022-09-10T14:39:44.705Z,21.50
2022-09-10T14:44:48.042Z,24.30
2022-09-10T14:49:52.382Z,23.70
2022-09-10T14:54:56.309Z,22.10
2022-09-10T15:00:00.232Z,24.00
2022-09-10T15:05:03.322Z,25.20
2022-09-10T15:10:07.483Z,23.30
2022-09-10T15:15:17.230Z,25.90
2022-09-10T15:25:38.585Z,24.00
2022-09-10T15:30:41.934Z,22.80
2022-09-10T15:35:44.875Z,22.50
2022-09-10T15:40:52.812Z,23.90
2022-09-10T15:45:57.223Z,23.20
2022-09-10T15:51:05.287Z,22.00
2022-09-10T15:56:10.890Z,23.60
2022-09-10T16:01:15.346Z,23.90
2022-09-10T16:06:19.611Z,24.40
2022-09-10T16:11:23.187Z,25.70
2022-09-10T16:16:27.347Z,28.90
2022-09-10T16:21:32.782Z,26.50
2022-09-10T16:26:39.245Z,27.00
2022-09-10T16:31:43.722Z,28.70
2022-09-10T16:36:49.053Z,25.20
2022-09-10T16:41:52.389Z,29.70
2022-09-10T16:46:57.766Z,31.30
2022-09-10T16:52:00.651Z,28.20
2022-09-10T16:57:04.171Z,32.80
2022-09-10T17:02:07.686Z,30.70
2022-09-10T17:07:10.697Z,29.10
2022-09-10T17:12:13.596Z,24.70
2022-09-10T17:17:16.504Z,27.80
2022-09-10T17:22:19.406Z,28.70
2022-09-10T17:27:25.397Z,28.00
2022-09-10T17:32:28.905Z,25.90
2022-09-10T17:37:32.521Z,25.30
2022-09-10T17:42:35.633Z,26.20
2022-09-10T17:47:39.252Z,25.90
2022-09-10T17:52:45.945Z,25.80
2022-09-10T17:57:49.110Z,23.30
2022-09-10T18:02:54.949Z,22.00
2022-09-10T18:07:57.930Z,25.50
2022-09-10T18:13:01.654Z,24.70
2022-09-10T18:18:04.773Z,27.20
2022-09-10T18:23:07.647Z,21.90
2022-09-10T18:28:11.148Z,28.50
2022-09-10T18:33:14.918Z,25.60
2022-09-10T18:38:18.236Z,26.60
2022-09-10T18:43:21.126Z,27.30
2022-09-10T18:48:23.946Z,24.50
2022-09-10T18:53:28.786Z,25.80
2022-09-10T18:58:31.579Z,26.30
2022-09-10T19:03:36.952Z,25.10
2022-09-10T19:08:45.888Z,25.40
2022-09-10T19:13:53.704Z,26.70
2022-09-10T19:18:58.864Z,25.60
2022-09-10T19:24:02.413Z,24.20
2022-09-10T19:29:06.624Z,21.70
2022-09-10T19:34:12.318Z,20.20
2022-09-10T19:39:17.262Z,16.40
2022-09-10T19:44:20.348Z,15.30
2022-09-10T19:49:23.377Z,16.60
2022-09-10T19:54:28.407Z,16.30
2022-09-10T19:59:31.621Z,18.70
2022-09-10T20:04:35.597Z,19.00
2022-09-10T20:09:40.060Z,18.70
2022-09-10T20:14:43.197Z,18.70
2022-09-10T20:19:46.000Z,19.20
2022-09-10T20:24:48.910Z,18.70
2022-09-10T20:29:51.757Z,17.40
2022-09-10T20:34:56.454Z,16.50
2022-09-10T20:39:59.384Z,19.10
2022-09-10T20:45:02.665Z,18.80
2022-09-10T20:50:06.574Z,21.20
2022-09-10T20:55:12.570Z,20.30
2022-09-10T21:00:15.902Z,22.00
2022-09-10T21:05:20.426Z,22.10
2022-09-10T21:10:23.437Z,22.80
2022-09-10T21:15:26.952Z,23.60
2022-09-10T21:20:29.750Z,24.30
2022-09-10T21:25:33.988Z,26.00
2022-09-10T21:30:37.303Z,25.00
2022-09-10T21:35:41.280Z,21.90
2022-09-10T21:40:44.544Z,20.40
2022-09-10T21:45:48.367Z,19.20
2022-09-10T21:51:04.793Z,22.10
2022-09-10T21:56:10.055Z,21.50
2022-09-10T22:01:19.041Z,20.30
2022-09-10T22:06:30.878Z,24.30
2022-09-10T22:11:40.865Z,18.40
2022-09-10T22:16:45.579Z,19.20
2022-09-10T22:21:48.633Z,19.60
2022-09-10T22:26:52.048Z,19.70
2022-09-10T22:31:55.667Z,20.20
2022-09-10T22:36:58.467Z,19.30
2022-09-10T22:42:01.275Z,17.10
2022-09-10T22:47:04.280Z,21.30
2022-09-10T22:52:07.079Z,20.60
2022-09-10T22:57:09.983Z,21.90
2022-09-10T23:02:12.788Z,21.50
2022-09-10T23:07:16.714Z,19.90
2022-09-10T23:12:22.280Z,21.10
2022-09-10T23:17:25.079Z,17.20
2022-09-10T23:22:27.984Z,20.90
2022-09-10T23:27:30.991Z,23.40
2022-09-10T23:32:33.810Z,19.60
2022-09-10T23:37:36.698Z,27.90
2022-09-10T23:42:39.599Z,26.30
2022-09-10T23:47:42.369Z,24.10
2022-09-10T23:52:45.201Z,22.60
2022-09-10T23:57:48.415Z,27.80
